createdAt,value
2018-11-05T00:00:18.345Z,1013.51
2018-11-05T00:01:18.718Z,1013.50
2018-11-05T00:02:39.680Z,1013.52
2018-11-05T00:03:40.316Z,1013.48
2018-11-05T00:04:39.930Z,1013.50
2018-11-05T00:05:40.265Z,1013.51
2018-11-05T00:06:39.722Z,1013.48
2018-11-05T00:08:00.969Z,1013.50
2018-11-05T00:09:01.306Z,1013.51
2018-11-05T00:10:22.654Z,1013.51
2018-11-05T00:11:23.229Z,1013.51
2018-11-05T00:12:43.434Z,1013.49
2018-11-05T00:13:43.763Z,1013.55
2018-11-05T00:15:05.015Z,1013.53
2018-11-05T00:16:05.193Z,1013.51
2018-11-05T00:17:05.614Z,1013.48
2018-11-05T00:18:05.163Z,1013.47
2018-11-05T00:19:05.459Z,1013.47
2018-11-05T00:20:05.857Z,1013.46
2018-11-05T00:21:05.300Z,1013.44
2018-11-05T00:22:05.464Z,1013.46
2018-11-05T00:23:05.757Z,1013.41
2018-11-05T00:24:05.014Z,1013.34
2018-11-05T00:25:05.405Z,1013.41
2018-11-05T00:26:05.796Z,1013.38
2018-11-05T00:27:05.936Z,1013.37
2018-11-05T00:28:05.342Z,1013.40
2018-11-05T00:29:05.459Z,1013.38
2018-11-05T00:30:05.854Z,1013.36
2018-11-05T00:31:05.545Z,1013.39
2018-11-05T00:32:06.084Z,1013.47
2018-11-05T00:33:05.471Z,1013.48
2018-11-05T00:34:05.860Z,1013.49
2018-11-05T00:35:05.219Z,1013.48
2018-11-05T00:36:28.793Z,1013.48
2018-11-05T00:37:50.342Z,1013.43
2018-11-05T00:38:50.802Z,1013.41
2018-11-05T00:39:51.071Z,1013.39
2018-11-05T00:40:50.448Z,1013.35
2018-11-05T00:41:50.672Z,1013.30
2018-11-05T00:42:51.109Z,1013.27
2018-11-05T00:43:50.376Z,1013.23
2018-11-05T00:44:50.777Z,1013.25
2018-11-05T00:45:51.171Z,1013.25
2018-11-05T00:46:50.372Z,1013.25
2018-11-05T00:47:50.587Z,1013.26
2018-11-05T00:48:50.836Z,1013.25
2018-11-05T00:49:51.186Z,1013.22
2018-11-05T00:50:50.521Z,1013.23
2018-11-05T00:52:12.172Z,1013.15
2018-11-05T00:53:12.488Z,1013.24
2018-11-05T00:54:12.699Z,1013.24
2018-11-05T00:55:12.080Z,1013.21
2018-11-05T00:56:12.376Z,1013.20
2018-11-05T00:57:12.637Z,1013.23
2018-11-05T00:58:12.807Z,1013.20
2018-11-05T00:59:13.024Z,1013.20
2018-11-05T01:00:12.482Z,1013.15
2018-11-05T01:01:12.657Z,1013.18
2018-11-05T01:02:15.606Z,1013.18
2018-11-05T01:03:12.746Z,1013.17
2018-11-05T01:04:37.226Z,1013.27
2018-11-05T01:06:40.947Z,1013.34
2018-11-05T01:07:41.428Z,1013.31
2018-11-05T01:08:40.988Z,1013.31
2018-11-05T01:09:41.193Z,1013.35
2018-11-05T01:10:41.240Z,1013.23
2018-11-05T01:11:41.574Z,1013.25
2018-11-05T01:12:41.842Z,1013.21
2018-11-05T01:13:41.177Z,1013.20
2018-11-05T01:14:41.512Z,1013.15
2018-11-05T01:16:23.936Z,1013.17
2018-11-05T01:17:24.358Z,1013.15
2018-11-05T01:18:24.687Z,1013.10
2018-11-05T01:19:23.983Z,1013.10
2018-11-05T01:20:24.475Z,1013.08
2018-11-05T01:21:24.555Z,1013.04
2018-11-05T01:22:23.973Z,1013.02
2018-11-05T01:23:24.181Z,1013.02
2018-11-05T01:24:24.571Z,1013.03
2018-11-05T01:25:24.687Z,1013.01
2018-11-05T01:26:23.923Z,1012.94
2018-11-05T01:27:24.263Z,1012.96
2018-11-05T01:28:24.531Z,1012.92
2018-11-05T01:29:45.808Z,1012.86
2018-11-05T01:30:45.954Z,1012.84
2018-11-05T01:31:46.363Z,1012.80
2018-11-05T01:32:45.905Z,1012.77
2018-11-05T01:33:46.144Z,1012.73
2018-11-05T01:34:46.646Z,1012.76
2018-11-05T01:35:45.849Z,1012.78
2018-11-05T01:36:46.060Z,1012.78
2018-11-05T01:37:46.189Z,1012.81
2018-11-05T01:38:46.356Z,1012.81
2018-11-05T01:39:46.570Z,1012.77
2018-11-05T01:40:45.821Z,1012.74
2018-11-05T01:41:46.277Z,1012.73
2018-11-05T01:42:46.647Z,1012.68
2018-11-05T01:43:46.017Z,1012.62
2018-11-05T01:45:07.423Z,1012.60
2018-11-05T01:46:07.617Z,1012.59
2018-11-05T01:47:08.016Z,1012.59
2018-11-05T01:48:08.449Z,1012.64
2018-11-05T01:49:07.649Z,1012.63
2018-11-05T01:50:07.975Z,1012.59
2018-11-05T01:51:08.315Z,1012.59
2018-11-05T01:52:28.775Z,1012.57
2018-11-05T01:53:29.167Z,1012.55
2018-11-05T01:54:29.420Z,1012.45
2018-11-05T01:55:29.678Z,1012.50
2018-11-05T01:56:29.050Z,1012.39
2018-11-05T01:57:29.346Z,1012.38
2018-11-05T01:58:29.601Z,1012.40
2018-11-05T01:59:29.218Z,1012.39
2018-11-05T02:00:29.479Z,1012.36
2018-11-05T02:01:28.946Z,1012.37
2018-11-05T02:02:29.416Z,1012.43
2018-11-05T02:03:29.661Z,1012.36
2018-11-05T02:04:28.915Z,1012.33
2018-11-05T02:05:29.311Z,1012.36
2018-11-05T02:06:50.614Z,1012.41
2018-11-05T02:07:50.938Z,1012.40
2018-11-05T02:08:51.103Z,1012.42
2018-11-05T02:10:11.580Z,1012.40
2018-11-05T02:11:11.939Z,1012.42
2018-11-05T02:12:12.347Z,1012.42
2018-11-05T02:13:11.890Z,1012.48
2018-11-05T02:14:12.238Z,1012.48
2018-11-05T02:15:24.180Z,1012.46
2018-11-05T02:16:32.593Z,1012.52
2018-11-05T02:17:32.898Z,1012.48
2018-11-05T02:18:33.122Z,1012.52
2018-11-05T02:19:53.371Z,1012.57
2018-11-05T02:20:53.859Z,1012.48
2018-11-05T02:21:54.195Z,1012.45
2018-11-05T02:22:53.502Z,1012.47
2018-11-05T02:23:53.829Z,1012.44
2018-11-05T02:24:54.003Z,1012.45
2018-11-05T02:25:53.220Z,1012.42
2018-11-05T02:26:53.629Z,1012.39
2018-11-05T02:27:54.095Z,1012.39
2018-11-05T02:28:53.342Z,1012.37
2018-11-05T02:29:53.790Z,1012.38
2018-11-05T02:30:54.070Z,1012.36
2018-11-05T02:31:53.327Z,1012.22
2018-11-05T02:32:53.716Z,1012.34
2018-11-05T02:33:54.179Z,1012.35
2018-11-05T02:35:14.417Z,1012.29
2018-11-05T02:36:14.620Z,1012.30
2018-11-05T02:37:14.886Z,1012.27
2018-11-05T02:38:15.220Z,1012.28
2018-11-05T02:39:14.497Z,1012.26
2018-11-05T02:40:14.862Z,1012.30
2018-11-05T02:41:15.112Z,1012.28
2018-11-05T02:42:15.283Z,1012.31
2018-11-05T02:43:14.610Z,1012.30
2018-11-05T02:44:35.945Z,1012.28
2018-11-05T02:45:36.304Z,1012.30
2018-11-05T02:46:57.721Z,1012.24
2018-11-05T02:47:58.048Z,1012.25
2018-11-05T02:48:58.432Z,1012.21
2018-11-05T02:49:57.786Z,1012.27
2018-11-05T02:50:58.084Z,1012.24
2018-11-05T02:51:58.259Z,1012.23
2018-11-05T02:52:58.821Z,1012.21
2018-11-05T02:53:58.215Z,1012.27
2018-11-05T02:54:58.454Z,1012.21
2018-11-05T02:55:57.826Z,1012.19
2018-11-05T02:56:58.399Z,1012.14
2018-11-05T02:58:19.570Z,1012.18
2018-11-05T02:59:19.685Z,1012.14
2018-11-05T03:00:20.056Z,1012.11
2018-11-05T03:01:20.281Z,1012.08
2018-11-05T03:02:40.455Z,1012.05
2018-11-05T03:03:40.856Z,1012.03
2018-11-05T03:04:41.304Z,1012.06
2018-11-05T03:05:41.475Z,1012.05
2018-11-05T03:06:41.168Z,1012.08
2018-11-05T03:07:40.467Z,1012.08
2018-11-05T03:08:40.832Z,1012.07
2018-11-05T03:09:41.113Z,1012.07
2018-11-05T03:10:40.623Z,1012.09
2018-11-05T03:11:41.055Z,1012.11
2018-11-05T03:13:01.286Z,1012.13
2018-11-05T03:14:01.667Z,1012.06
2018-11-05T03:15:01.929Z,1012.03
2018-11-05T03:16:02.043Z,1012.07
2018-11-05T03:17:02.437Z,1012.01
2018-11-05T03:18:01.749Z,1011.99
2018-11-05T03:19:22.909Z,1012.01
2018-11-05T03:20:23.372Z,1012.00
2018-11-05T03:21:23.413Z,1012.01
2018-11-05T03:22:23.738Z,1012.01
2018-11-05T03:23:23.117Z,1012.04
2018-11-05T03:24:23.293Z,1012.05
2018-11-05T03:25:23.756Z,1012.03
2018-11-05T03:26:23.155Z,1012.02
2018-11-05T03:27:23.495Z,1011.97
2018-11-05T03:28:44.535Z,1011.92
2018-11-05T03:29:44.739Z,1011.94
2018-11-05T03:30:45.101Z,1011.93
2018-11-05T03:31:45.447Z,1011.95
2018-11-05T03:32:44.779Z,1011.90
2018-11-05T03:33:45.119Z,1011.93
2018-11-05T03:35:08.598Z,1011.91
2018-11-05T03:36:29.927Z,1011.92
2018-11-05T03:37:30.221Z,1011.86
2018-11-05T03:38:30.420Z,1011.87
2018-11-05T03:39:51.501Z,1011.86
2018-11-05T03:40:51.691Z,1011.81
2018-11-05T03:41:52.004Z,1011.81
2018-11-05T03:42:52.490Z,1011.81
2018-11-05T03:44:12.824Z,1011.84
2018-11-05T03:45:34.389Z,1011.80
2018-11-05T03:46:34.434Z,1011.80
2018-11-05T03:47:34.761Z,1011.79
2018-11-05T03:48:35.029Z,1011.78
2018-11-05T03:49:34.466Z,1011.78
2018-11-05T03:50:55.899Z,1011.78
2018-11-05T03:51:56.230Z,1011.75
2018-11-05T03:52:56.702Z,1011.77
2018-11-05T03:53:56.089Z,1011.78
2018-11-05T03:54:56.332Z,1011.77
2018-11-05T03:55:56.672Z,1011.78
2018-11-05T03:57:16.800Z,1011.76
2018-11-05T03:58:17.274Z,1011.74
2018-11-05T03:59:17.628Z,1011.73
2018-11-05T04:00:17.065Z,1011.77
2018-11-05T04:01:17.455Z,1011.77
2018-11-05T04:02:17.851Z,1011.79
2018-11-05T04:03:17.334Z,1011.78
2018-11-05T04:04:17.704Z,1011.78
2018-11-05T04:05:16.865Z,1011.80
2018-11-05T04:06:17.162Z,1011.82
2018-11-05T04:07:17.654Z,1011.77
2018-11-05T04:08:17.025Z,1011.73
2018-11-05T04:09:17.352Z,1011.79
2018-11-05T04:10:17.810Z,1011.76
2018-11-05T04:11:17.116Z,1011.79
2018-11-05T04:12:17.547Z,1011.75
2018-11-05T04:13:16.903Z,1011.73
2018-11-05T04:14:17.139Z,1011.73
2018-11-05T04:15:38.799Z,1011.73
2018-11-05T04:17:02.432Z,1011.70
2018-11-05T04:18:02.917Z,1011.71
2018-11-05T04:19:24.159Z,1011.73
2018-11-05T04:20:24.668Z,1011.74
2018-11-05T04:21:24.941Z,1011.69
2018-11-05T04:22:24.221Z,1011.70
2018-11-05T04:23:24.471Z,1011.68
2018-11-05T04:24:24.812Z,1011.60
2018-11-05T04:25:24.188Z,1011.65
2018-11-05T04:26:24.759Z,1011.65
2018-11-05T04:27:25.021Z,1011.64
2018-11-05T04:28:45.462Z,1011.62
2018-11-05T04:30:06.689Z,1011.62
2018-11-05T04:31:06.913Z,1011.59
2018-11-05T04:32:30.629Z,1011.54
2018-11-05T04:33:31.073Z,1011.51
2018-11-05T04:34:31.530Z,1011.54
2018-11-05T04:35:31.041Z,1011.55
2018-11-05T04:36:33.216Z,1011.47
2018-11-05T04:37:30.737Z,1011.48
2018-11-05T04:38:30.989Z,1011.48
2018-11-05T04:39:52.357Z,1011.49
2018-11-05T04:40:52.719Z,1011.43
2018-11-05T04:41:53.258Z,1011.43
2018-11-05T04:42:52.647Z,1011.45
2018-11-05T04:43:52.910Z,1011.44
2018-11-05T04:44:52.433Z,1011.46
2018-11-05T04:46:13.490Z,1011.46
2018-11-05T04:47:37.146Z,1011.44
2018-11-05T04:48:37.405Z,1011.48
2018-11-05T04:49:37.768Z,1011.44
2018-11-05T04:50:37.099Z,1011.47
2018-11-05T04:51:37.608Z,1011.46
2018-11-05T04:52:59.318Z,1011.43
2018-11-05T04:53:59.581Z,1011.42
2018-11-05T04:55:00.262Z,1011.37
2018-11-05T04:56:01.617Z,1011.34
2018-11-05T04:57:00.531Z,1011.36
2018-11-05T04:57:59.752Z,1011.32
2018-11-05T04:59:00.121Z,1011.33
2018-11-05T04:59:59.524Z,1011.35
2018-11-05T05:00:59.783Z,1011.32
2018-11-05T05:02:00.341Z,1011.33
2018-11-05T05:02:59.717Z,1011.30
2018-11-05T05:04:21.441Z,1011.30
2018-11-05T05:05:21.935Z,1011.31
2018-11-05T05:06:22.431Z,1011.32
2018-11-05T05:07:21.951Z,1011.34
2018-11-05T05:08:43.332Z,1011.32
2018-11-05T05:09:43.642Z,1011.35
2018-11-05T05:11:05.271Z,1011.32
2018-11-05T05:12:05.588Z,1011.33
2018-11-05T05:13:06.186Z,1011.32
2018-11-05T05:14:05.681Z,1011.34
2018-11-05T05:15:06.189Z,1011.32
2018-11-05T05:16:05.496Z,1011.33
2018-11-05T05:17:27.574Z,1011.32
2018-11-05T05:18:27.909Z,1011.36
2018-11-05T05:19:28.395Z,1011.36
2018-11-05T05:20:27.753Z,1011.34
2018-11-05T05:21:27.985Z,1011.37
2018-11-05T05:22:28.179Z,1011.32
2018-11-05T05:23:27.874Z,1011.33
2018-11-05T05:24:28.177Z,1011.30
2018-11-05T05:25:28.382Z,1011.38
2018-11-05T05:26:27.656Z,1011.40
2018-11-05T05:27:28.025Z,1011.39
2018-11-05T05:28:28.240Z,1011.41
2018-11-05T05:29:30.609Z,1011.38
2018-11-05T05:30:27.780Z,1011.37
2018-11-05T05:31:27.862Z,1011.42
2018-11-05T05:32:28.178Z,1011.37
2018-11-05T05:33:27.698Z,1011.37
2018-11-05T05:34:28.220Z,1011.33
2018-11-05T05:35:28.461Z,1011.32
2018-11-05T05:36:27.916Z,1011.30
2018-11-05T05:37:28.413Z,1011.29
2018-11-05T05:38:27.875Z,1011.34
2018-11-05T05:39:28.084Z,1011.27
2018-11-05T05:41:31.858Z,1011.30
2018-11-05T05:42:32.020Z,1011.29
2018-11-05T05:43:32.473Z,1011.30
2018-11-05T05:44:31.707Z,1011.30
2018-11-05T05:45:31.909Z,1011.22
2018-11-05T05:46:32.184Z,1011.29
2018-11-05T05:47:32.326Z,1011.28
2018-11-05T05:48:33.564Z,1011.28
2018-11-05T05:49:31.597Z,1011.27
2018-11-05T05:50:53.614Z,1011.30
2018-11-05T05:51:53.854Z,1011.27
2018-11-05T05:52:53.298Z,1011.33
2018-11-05T05:53:53.552Z,1011.33
2018-11-05T05:54:53.840Z,1011.32
2018-11-05T05:55:53.054Z,1011.32
2018-11-05T05:56:53.177Z,1011.29
2018-11-05T05:57:53.357Z,1011.28
2018-11-05T05:58:53.698Z,1011.30
2018-11-05T06:00:14.026Z,1011.30
2018-11-05T06:01:14.236Z,1011.37
2018-11-05T06:02:14.531Z,1011.34
2018-11-05T06:03:14.887Z,1011.38
2018-11-05T06:04:14.268Z,1011.38
2018-11-05T06:05:14.675Z,1011.40
2018-11-05T06:06:15.400Z,1011.45
2018-11-05T06:07:14.817Z,1011.44
2018-11-05T06:08:35.986Z,1011.47
2018-11-05T06:09:36.290Z,1011.40
2018-11-05T06:10:36.818Z,1011.41
2018-11-05T06:11:36.201Z,1011.38
2018-11-05T06:12:36.571Z,1011.38
2018-11-05T06:13:36.959Z,1011.35
2018-11-05T06:14:36.029Z,1011.34
2018-11-05T06:15:36.391Z,1011.36
2018-11-05T06:16:36.795Z,1011.34
2018-11-05T06:18:18.020Z,1011.33
2018-11-05T06:19:18.213Z,1011.37
2018-11-05T06:20:18.548Z,1011.41
2018-11-05T06:21:19.032Z,1011.39
2018-11-05T06:22:18.313Z,1011.44
2018-11-05T06:23:19.877Z,1011.42
2018-11-05T06:24:18.193Z,1011.45
2018-11-05T06:25:18.831Z,1011.47
2018-11-05T06:26:18.175Z,1011.50
2018-11-05T06:27:18.561Z,1011.53
2018-11-05T06:28:19.119Z,1011.57
2018-11-05T06:29:18.645Z,1011.55
2018-11-05T06:30:20.710Z,1011.52
2018-11-05T06:31:19.091Z,1011.45
2018-11-05T06:32:18.619Z,1011.38
2018-11-05T06:33:20.768Z,1011.36
2018-11-05T06:34:19.407Z,1011.37
2018-11-05T06:35:18.988Z,1011.35
2018-11-05T06:36:18.400Z,1011.37
2018-11-05T06:37:18.683Z,1011.37
2018-11-05T06:38:19.151Z,1011.41
2018-11-05T06:39:39.520Z,1011.45
2018-11-05T06:40:39.787Z,1011.46
2018-11-05T06:42:01.147Z,1011.48
2018-11-05T06:43:01.275Z,1011.49
2018-11-05T06:45:04.796Z,1011.48
2018-11-05T06:46:05.297Z,1011.45
2018-11-05T06:47:31.743Z,1011.42
2018-11-05T06:48:32.212Z,1011.42
2018-11-05T06:49:32.660Z,1011.43
2018-11-05T06:50:31.989Z,1011.41
2018-11-05T06:51:32.532Z,1011.44
2018-11-05T06:52:32.058Z,1011.46
2018-11-05T06:53:32.416Z,1011.47
2018-11-05T06:54:32.023Z,1011.48
2018-11-05T06:55:34.179Z,1011.49
2018-11-05T06:56:32.730Z,1011.53
2018-11-05T06:57:32.144Z,1011.51
2018-11-05T06:58:32.575Z,1011.52
2018-11-05T06:59:31.846Z,1011.45
2018-11-05T07:00:32.351Z,1011.48
2018-11-05T07:01:31.739Z,1011.46
2018-11-05T07:02:32.338Z,1011.41
2018-11-05T07:03:31.992Z,1011.42
2018-11-05T07:04:32.413Z,1011.43
2018-11-05T07:05:31.724Z,1011.39
2018-11-05T07:06:32.125Z,1011.40
2018-11-05T07:07:32.724Z,1011.39
2018-11-05T07:08:32.243Z,1011.37
2018-11-05T07:09:32.642Z,1011.39
2018-11-05T07:10:53.869Z,1011.36
2018-11-05T07:11:54.399Z,1011.41
2018-11-05T07:12:54.972Z,1011.31
2018-11-05T07:14:15.634Z,1011.38
2018-11-05T07:15:16.187Z,1011.36
2018-11-05T07:16:15.691Z,1011.34
2018-11-05T07:17:16.338Z,1011.33
2018-11-05T07:18:15.758Z,1011.34
2018-11-05T07:19:16.527Z,1011.28
2018-11-05T07:20:16.102Z,1011.25
2018-11-05T07:21:16.629Z,1011.27
2018-11-05T07:22:16.099Z,1011.27
2018-11-05T07:23:15.738Z,1011.28
2018-11-05T07:24:16.272Z,1011.22
2018-11-05T07:25:15.681Z,1011.23
2018-11-05T07:26:16.093Z,1011.21
2018-11-05T07:27:15.624Z,1011.23
2018-11-05T07:28:16.023Z,1011.24
2018-11-05T07:29:16.434Z,1011.26
2018-11-05T07:30:15.910Z,1011.28
2018-11-05T07:31:16.628Z,1011.27
2018-11-05T07:32:16.352Z,1011.28
2018-11-05T07:33:16.131Z,1011.30
2018-11-05T07:34:37.401Z,1011.33
2018-11-05T07:35:37.736Z,1011.35
2018-11-05T07:36:37.446Z,1011.42
2018-11-05T07:37:58.969Z,1011.46
2018-11-05T07:38:59.597Z,1011.49
2018-11-05T07:39:59.290Z,1011.58
2018-11-05T07:40:59.811Z,1011.58
2018-11-05T07:41:59.249Z,1011.60
2018-11-05T07:42:59.664Z,1011.62
2018-11-05T07:43:59.112Z,1011.67
2018-11-05T07:44:59.531Z,1011.66
2018-11-05T07:45:59.011Z,1011.68
2018-11-05T07:46:59.293Z,1011.67
2018-11-05T07:47:59.733Z,1011.63
2018-11-05T07:49:20.619Z,1011.60
2018-11-05T07:50:21.447Z,1011.66
2018-11-05T07:51:21.217Z,1011.64
2018-11-05T07:52:20.778Z,1011.64
2018-11-05T07:53:21.304Z,1011.62
2018-11-05T07:54:20.819Z,1011.63
2018-11-05T07:55:21.306Z,1011.64
2018-11-05T07:56:21.153Z,1011.56
2018-11-05T07:57:20.891Z,1011.57
2018-11-05T07:58:42.715Z,1011.65
2018-11-05T07:59:43.299Z,1011.54
2018-11-05T08:00:42.820Z,1011.73
2018-11-05T08:01:43.202Z,1011.76
2018-11-05T08:03:26.509Z,1011.69
2018-11-05T08:04:26.771Z,1011.60
2018-11-05T08:05:48.517Z,1011.62
2018-11-05T08:06:49.137Z,1011.59
2018-11-05T08:07:49.494Z,1011.56
2018-11-05T08:08:48.991Z,1011.53
2018-11-05T08:09:49.432Z,1011.53
2018-11-05T08:10:49.084Z,1011.49
2018-11-05T08:11:48.499Z,1011.51
2018-11-05T08:13:10.245Z,1011.55
2018-11-05T08:14:10.739Z,1011.46
2018-11-05T08:15:10.166Z,1011.40
2018-11-05T08:16:10.845Z,1011.36
2018-11-05T08:17:52.949Z,1011.42
2018-11-05T08:18:53.550Z,1011.47
2018-11-05T08:19:53.231Z,1011.40
2018-11-05T08:20:53.847Z,1011.37
2018-11-05T08:22:14.717Z,1011.37
2018-11-05T08:23:15.164Z,1011.33
2018-11-05T08:24:36.889Z,1011.31
2018-11-05T08:25:36.551Z,1011.30
2018-11-05T08:26:35.967Z,1011.27
2018-11-05T08:27:36.448Z,1011.23
2018-11-05T08:28:36.778Z,1011.32
2018-11-05T08:29:36.167Z,1011.37
2018-11-05T08:30:36.765Z,1011.42
2018-11-05T08:31:36.365Z,1011.45
2018-11-05T08:32:36.772Z,1011.48
2018-11-05T08:33:56.916Z,1011.46
2018-11-05T08:34:57.480Z,1011.39
2018-11-05T08:35:57.691Z,1011.37
2018-11-05T08:36:57.031Z,1011.37
2018-11-05T08:38:18.630Z,1011.36
2018-11-05T08:39:19.124Z,1011.31
2018-11-05T08:40:40.740Z,1011.34
2018-11-05T08:41:41.274Z,1011.32
2018-11-05T08:42:41.770Z,1011.33
2018-11-05T08:44:04.084Z,1011.32
2018-11-05T08:45:04.346Z,1011.30
2018-11-05T08:46:04.817Z,1011.24
2018-11-05T08:47:04.387Z,1011.22
2018-11-05T08:48:25.782Z,1011.20
2018-11-05T08:49:26.460Z,1011.15
2018-11-05T08:50:26.175Z,1011.15
2018-11-05T08:51:26.891Z,1011.20
2018-11-05T08:52:26.025Z,1011.15
2018-11-05T08:53:26.364Z,1011.15
2018-11-05T08:54:32.723Z,1011.16
2018-11-05T08:55:48.034Z,1011.12
2018-11-05T08:57:32.165Z,1011.12
2018-11-05T08:58:31.706Z,1011.12
2018-11-05T08:59:32.523Z,1011.06
2018-11-05T09:00:32.109Z,1011.07
2018-11-05T09:01:31.989Z,1011.04
2018-11-05T09:02:32.579Z,1010.97
2018-11-05T09:03:32.138Z,1010.96
2018-11-05T09:04:32.552Z,1010.93
2018-11-05T09:05:32.288Z,1010.99
2018-11-05T09:06:31.768Z,1011.02
2018-11-05T09:07:32.066Z,1010.94
2018-11-05T09:08:32.530Z,1010.98
2018-11-05T09:09:32.315Z,1010.98
2018-11-05T09:10:32.025Z,1011.05
2018-11-05T09:11:31.892Z,1011.02
2018-11-05T09:12:31.946Z,1011.02
2018-11-05T09:13:32.464Z,1011.05
2018-11-05T09:14:31.958Z,1011.00
2018-11-05T09:15:32.746Z,1011.03
2018-11-05T09:16:32.112Z,1010.95
2018-11-05T09:17:33.666Z,1010.96
2018-11-05T09:18:32.180Z,1010.95
2018-11-05T09:19:31.800Z,1010.81
2018-11-05T09:20:32.269Z,1010.93
2018-11-05T09:21:31.748Z,1010.94
2018-11-05T09:22:32.425Z,1010.88
2018-11-05T09:23:32.447Z,1010.88
2018-11-05T09:24:31.870Z,1010.91
2018-11-05T09:25:32.399Z,1010.84
2018-11-05T09:26:31.848Z,1010.84
2018-11-05T09:27:32.329Z,1010.80
2018-11-05T09:28:31.978Z,1010.82
2018-11-05T09:29:32.218Z,1010.81
2018-11-05T09:30:32.475Z,1010.78
2018-11-05T09:32:16.429Z,1010.81
2018-11-05T09:33:16.807Z,1010.78
2018-11-05T09:34:17.299Z,1010.82
2018-11-05T09:35:38.005Z,1010.82
2018-11-05T09:36:38.363Z,1010.83
2018-11-05T09:37:38.788Z,1010.85
2018-11-05T09:38:38.124Z,1010.86
2018-11-05T09:39:38.789Z,1010.82
2018-11-05T09:40:38.185Z,1010.80
2018-11-05T09:42:20.727Z,1010.78
2018-11-05T09:43:21.143Z,1010.72
2018-11-05T09:44:21.438Z,1010.71
2018-11-05T09:45:20.775Z,1010.73
2018-11-05T09:46:21.165Z,1010.67
2018-11-05T09:47:21.631Z,1010.73
2018-11-05T09:48:21.127Z,1010.79
2018-11-05T09:49:21.396Z,1010.78
2018-11-05T09:50:20.922Z,1010.78
2018-11-05T09:51:43.469Z,1010.69
2018-11-05T09:52:42.923Z,1010.69
2018-11-05T09:53:43.252Z,1010.68
2018-11-05T09:54:43.662Z,1010.67
2018-11-05T09:55:43.258Z,1010.70
2018-11-05T09:56:43.568Z,1010.68
2018-11-05T09:57:42.977Z,1010.68
2018-11-05T09:58:43.334Z,1010.66
2018-11-05T10:00:03.819Z,1010.70
2018-11-05T10:01:04.225Z,1010.67
2018-11-05T10:02:03.729Z,1010.68
2018-11-05T10:03:04.318Z,1010.63
2018-11-05T10:04:03.928Z,1010.63
2018-11-05T10:05:05.001Z,1010.56
2018-11-05T10:06:04.799Z,1010.58
2018-11-05T10:07:25.398Z,1010.59
2018-11-05T10:08:25.932Z,1010.64
2018-11-05T10:09:26.221Z,1010.67
2018-11-05T10:10:25.943Z,1010.70
2018-11-05T10:11:25.458Z,1010.71
2018-11-05T10:12:26.035Z,1010.75
2018-11-05T10:13:25.625Z,1010.79
2018-11-05T10:14:25.868Z,1010.78
2018-11-05T10:15:25.460Z,1010.79
2018-11-05T10:16:25.842Z,1010.80
2018-11-05T10:17:26.085Z,1010.89
2018-11-05T10:18:25.391Z,1010.82
2018-11-05T10:19:25.848Z,1010.85
2018-11-05T10:20:26.200Z,1010.82
2018-11-05T10:21:25.645Z,1010.85
2018-11-05T10:23:08.102Z,1010.81
2018-11-05T10:24:08.598Z,1010.76
2018-11-05T10:25:08.427Z,1010.72
2018-11-05T10:26:08.355Z,1010.67
2018-11-05T10:27:50.890Z,1010.63
2018-11-05T10:28:51.295Z,1010.63
2018-11-05T10:29:51.871Z,1010.67
2018-11-05T10:30:51.240Z,1010.59
2018-11-05T10:31:51.847Z,1010.59
2018-11-05T10:33:12.672Z,1010.60
2018-11-05T10:35:39.515Z,1010.53
2018-11-05T10:36:39.994Z,1010.50
2018-11-05T10:37:40.401Z,1010.50
2018-11-05T10:39:01.356Z,1010.49
2018-11-05T10:40:23.183Z,1010.47
2018-11-05T10:41:23.812Z,1010.46
2018-11-05T10:42:44.512Z,1010.44
2018-11-05T10:43:45.122Z,1010.49
2018-11-05T10:44:44.394Z,1010.54
2018-11-05T10:45:44.885Z,1010.50
2018-11-05T10:46:44.629Z,1010.50
2018-11-05T10:47:45.079Z,1010.43
2018-11-05T10:48:44.497Z,1010.42
2018-11-05T10:49:45.070Z,1010.44
2018-11-05T10:50:44.637Z,1010.41
2018-11-05T10:51:45.262Z,1010.40
2018-11-05T10:52:44.852Z,1010.41
2018-11-05T10:53:44.279Z,1010.43
2018-11-05T10:54:45.327Z,1010.45
2018-11-05T10:55:44.682Z,1010.38
2018-11-05T10:56:45.059Z,1010.35
2018-11-05T10:57:44.688Z,1010.35
2018-11-05T10:58:45.099Z,1010.27
2018-11-05T10:59:44.781Z,1010.35
2018-11-05T11:00:45.946Z,1010.37
2018-11-05T11:01:44.543Z,1010.39
2018-11-05T11:02:46.140Z,1010.39
2018-11-05T11:03:44.828Z,1010.40
2018-11-05T11:04:45.235Z,1010.33
2018-11-05T11:05:44.738Z,1010.34
2018-11-05T11:07:06.284Z,1010.35
2018-11-05T11:08:07.503Z,1010.39
2018-11-05T11:09:07.224Z,1010.39
2018-11-05T11:10:06.771Z,1010.38
2018-11-05T11:11:07.195Z,1010.41
2018-11-05T11:12:28.043Z,1010.42
2018-11-05T11:13:28.302Z,1010.45
2018-11-05T11:14:28.554Z,1010.46
2018-11-05T11:15:29.177Z,1010.49
2018-11-05T11:16:28.660Z,1010.46
2018-11-05T11:17:28.196Z,1010.41
2018-11-05T11:18:28.792Z,1010.35
2018-11-05T11:19:28.017Z,1010.31
2018-11-05T11:20:28.465Z,1010.26
2018-11-05T11:21:28.806Z,1010.25
2018-11-05T11:22:28.263Z,1010.30
2018-11-05T11:23:28.789Z,1010.29
2018-11-05T11:24:28.154Z,1010.27
2018-11-05T11:25:28.617Z,1010.30
2018-11-05T11:26:29.087Z,1010.32
2018-11-05T11:27:28.671Z,1010.35
2018-11-05T11:28:29.183Z,1010.31
2018-11-05T11:29:28.965Z,1010.22
2018-11-05T11:30:28.661Z,1010.23
2018-11-05T11:31:29.054Z,1010.23
2018-11-05T11:32:28.367Z,1010.22
2018-11-05T11:33:29.036Z,1010.20
2018-11-05T11:34:28.448Z,1010.13
2018-11-05T11:35:29.105Z,1010.15
2018-11-05T11:36:28.782Z,1010.09
2018-11-05T11:37:28.440Z,1010.11
2018-11-05T11:38:29.006Z,1010.15
2018-11-05T11:39:28.686Z,1010.15
2018-11-05T11:40:28.180Z,1010.10
2018-11-05T11:41:50.077Z,1010.06
2018-11-05T11:42:50.625Z,1010.03
2018-11-05T11:43:50.263Z,1010.00
2018-11-05T11:44:50.607Z,1009.99
2018-11-05T11:46:32.457Z,1009.98
2018-11-05T11:47:32.873Z,1010.00
2018-11-05T11:48:33.242Z,1009.96
2018-11-05T11:49:32.726Z,1009.97
2018-11-05T11:50:33.300Z,1009.96
2018-11-05T11:51:32.474Z,1009.93
2018-11-05T11:52:32.721Z,1009.93
2018-11-05T11:53:54.388Z,1009.89
2018-11-05T11:54:54.871Z,1009.81
2018-11-05T11:55:55.453Z,1009.81
2018-11-05T11:56:55.062Z,1009.79
2018-11-05T11:57:54.641Z,1009.83
2018-11-05T11:59:37.566Z,1009.83
2018-11-05T12:00:38.187Z,1009.84
2018-11-05T12:01:37.595Z,1009.84
2018-11-05T12:02:38.137Z,1009.87
2018-11-05T12:03:37.742Z,1009.91
2018-11-05T12:04:38.349Z,1009.90
2018-11-05T12:05:37.805Z,1009.89
2018-11-05T12:06:38.301Z,1009.91
2018-11-05T12:07:37.855Z,1009.87
2018-11-05T12:08:37.202Z,1009.88
2018-11-05T12:09:37.811Z,1009.88
2018-11-05T12:10:38.309Z,1009.91
2018-11-05T12:11:37.865Z,1009.89
2018-11-05T12:12:37.447Z,1009.93
2018-11-05T12:13:37.829Z,1009.85
2018-11-05T12:14:37.374Z,1009.86
2018-11-05T12:15:38.197Z,1009.82
2018-11-05T12:17:20.172Z,1009.86
2018-11-05T12:18:20.589Z,1009.79
2018-11-05T12:19:22.585Z,1009.77
2018-11-05T12:20:20.046Z,1009.72
2018-11-05T12:21:20.759Z,1009.69
2018-11-05T12:22:20.133Z,1009.73
2018-11-05T12:23:20.904Z,1009.73
2018-11-05T12:24:20.752Z,1009.66
2018-11-05T12:25:20.531Z,1009.74
2018-11-05T12:26:20.075Z,1009.70
2018-11-05T12:27:20.725Z,1009.64
2018-11-05T12:28:20.071Z,1009.63
2018-11-05T12:29:20.690Z,1009.61
2018-11-05T12:30:20.412Z,1009.61
2018-11-05T12:31:20.857Z,1009.63
2018-11-05T12:32:20.286Z,1009.64
2018-11-05T12:33:20.906Z,1009.65
2018-11-05T12:34:20.576Z,1009.65
2018-11-05T12:35:20.415Z,1009.64
2018-11-05T12:36:20.085Z,1009.66
2018-11-05T12:37:20.582Z,1009.62
2018-11-05T12:38:20.090Z,1009.62
2018-11-05T12:40:24.713Z,1009.57
2018-11-05T12:41:25.386Z,1009.55
2018-11-05T12:42:25.010Z,1009.55
2018-11-05T12:44:08.076Z,1009.47
2018-11-05T12:45:08.776Z,1009.49
2018-11-05T12:46:08.277Z,1009.49
2018-11-05T12:47:08.952Z,1009.47
2018-11-05T12:48:08.362Z,1009.45
2018-11-05T12:49:09.379Z,1009.43